Flughafen Stuttgart

Aus VATSIM Germany
Dies ist die bestätigte sowie die neueste Version dieser Seite.
Wechseln zu:Navigation, Suche
UnderCon icon.svg.pngDieser Artikel ist noch im Aufbau. Der Artikel kann daher unvollständig sein oder Fehler enthalten!


Stuttgart Airport
ICAO / IATA EDDS / STR
Koordinaten N48°41′24″  E009°13′19″
Höhe 389 m / 1276 ft
Wetter EDDS 171620Z VRB02KT 9999 FEW035 19/08 Q1016 NOSIG
Pisten
Platzfrequenzen
Nur für Flugsimulationszwecke!



Informationen für Piloten und Lotsen
Pilotenbriefing

Standard Operating Procedures (SOP)

Letters of Agreement (LoAs)

Vorlage:Chartbox